Time;durP1;ratioP1;P1;durP2;ratioP2;P2;SDS_P1;SDS_P2;PMS_P1;PMS_P2;Temp;Humidity;BMP_temperature;BMP_pressure;BME280_temperature;BME280_humidity;BME280_pressure;Samples;Min_cycle;Max_cycle;Signal;HPM_P1;HPM_P2
2022/09/27 00:02:49;;;;;;;6.13;0.97;;;15.20;79.30;;;;;;10360345;28;20403;-38
2022/09/27 00:07:50;;;;;;;5.70;1.35;;;15.30;72.20;;;;;;10372619;28;20057;-38
2022/09/27 00:12:52;;;;;;;8.93;1.00;;;15.60;78.20;;;;;;10351672;28;20483;-39
2022/09/27 00:17:56;;;;;;;4.70;1.23;;;14.90;79.00;;;;;;10354944;28;20495;-32
2022/09/27 00:22:57;;;;;;;8.55;1.80;;;14.40;81.10;;;;;;10360489;28;20149;-38
2022/09/27 00:28:01;;;;;;;11.37;2.20;;;15.10;75.50;;;;;;10352324;28;20140;-37
2022/09/27 00:33:04;;;;;;;8.18;1.10;;;13.90;81.70;;;;;;10351551;28;20639;-38
2022/09/27 00:38:06;;;;;;;12.82;1.67;;;13.80;80.80;;;;;;10348924;28;20073;-36
2022/09/27 00:43:16;;;;;;;8.73;1.33;;;13.60;85.30;;;;;;10354968;28;20407;-36
2022/09/27 00:48:23;;;;;;;15.73;1.45;;;12.60;90.10;;;;;;10368983;28;20507;-36
2022/09/27 00:53:30;;;;;;;11.63;1.30;;;14.30;83.90;;;;;;10366658;28;20085;-37
2022/09/27 00:58:37;;;;;;;10.48;1.30;;;13.60;85.80;;;;;;10357985;28;20042;-37
2022/09/27 01:03:45;;;;;;;8.30;1.83;;;13.60;83.00;;;;;;10347619;28;20142;-38
2022/09/27 01:08:47;;;;;;;21.02;1.67;;;13.30;87.00;;;;;;10359818;28;20058;-37
2022/09/27 01:14:01;;;;;;;22.10;2.30;;;12.60;90.00;;;;;;10364279;28;20081;-36
2022/09/27 01:19:20;;;;;;;5.25;0.68;;;13.20;86.70;;;;;;10350819;28;20142;-38
2022/09/27 01:24:57;;;;;;;3.42;0.90;;;15.00;79.30;;;;;;10339957;28;20077;-38
2022/09/27 01:30:21;;;;;;;2.92;0.60;;;16.00;77.00;;;;;;10263916;28;20052;-38
2022/09/27 01:35:31;;;;;;;9.88;1.50;;;17.50;70.10;;;;;;10357209;28;20422;-38
2022/09/27 01:40:39;;;;;;;9.32;0.93;;;15.80;73.70;;;;;;10354793;28;20142;-38
2022/09/27 01:45:45;;;;;;;5.53;0.73;;;14.90;78.60;;;;;;10349766;28;20081;-38
2022/09/27 01:50:52;;;;;;;3.63;0.50;;;14.80;77.60;;;;;;10367047;28;20088;-37
2022/09/27 01:55:56;;;;;;;7.95;1.13;;;15.00;80.90;;;;;;10362349;28;20554;-38
2022/09/27 02:01:00;;;;;;;6.82;0.63;;;13.80;79.00;;;;;;10357023;28;20376;-38
2022/09/27 02:06:07;;;;;;;7.68;1.23;;;14.40;81.90;;;;;;10345144;28;20592;-37
2022/09/27 02:11:11;;;;;;;5.88;0.82;;;13.70;81.70;;;;;;10356927;28;20041;-37
2022/09/27 02:16:23;;;;;;;3.90;1.30;;;14.60;83.00;;;;;;10344624;28;20127;-36
2022/09/27 02:21:31;;;;;;;6.00;0.82;;;15.10;81.30;;;;;;10342818;28;20103;-37
2022/09/27 02:26:40;;;;;;;3.30;1.20;;;16.30;73.70;;;;;;10344591;28;20451;-38
2022/09/27 02:31:43;;;;;;;5.15;0.85;;;16.20;75.10;;;;;;10346488;28;20128;-39
2022/09/27 02:36:45;;;;;;;2.22;0.70;;;15.70;76.50;;;;;;10345308;28;20046;-38
2022/09/27 02:41:48;;;;;;;2.67;0.63;;;14.20;81.70;;;;;;10358601;28;20077;-35
2022/09/27 02:47:24;;;;;;;7.40;1.13;;;14.70;81.70;;;;;;10349610;28;20546;-38
2022/09/27 02:52:34;;;;;;;2.85;0.40;;;13.80;80.30;;;;;;10346422;28;20095;-38
2022/09/27 02:57:47;;;;;;;7.70;1.05;;;14.70;79.40;;;;;;10359188;28;20132;-39
2022/09/27 03:02:59;;;;;;;1.58;0.50;;;14.80;80.70;;;;;;10354204;28;20558;-38
2022/09/27 03:08:01;;;;;;;7.90;1.27;;;15.20;76.40;;;;;;10344657;28;20057;-39
2022/09/27 03:13:03;;;;;;;5.70;0.85;;;15.70;75.50;;;;;;10344061;28;20141;-39
2022/09/27 03:18:07;;;;;;;2.28;0.65;;;15.00;79.00;;;;;;10343002;28;20614;-38
2022/09/27 03:23:08;;;;;;;4.78;0.85;;;13.30;85.20;;;;;;10340269;28;20433;-38
2022/09/27 03:28:11;;;;;;;8.40;1.47;;;13.20;89.00;;;;;;10353306;28;20047;-37
2022/09/27 03:33:14;;;;;;;4.63;1.13;;;15.60;76.40;;;;;;10355678;28;20058;-38
2022/09/27 03:38:16;;;;;;;3.60;0.60;;;16.90;71.30;;;;;;10367165;28;20100;-37
2022/09/27 03:43:18;;;;;;;2.77;0.50;;;16.00;74.50;;;;;;10350745;28;20054;-37
2022/09/27 03:48:21;;;;;;;8.53;0.77;;;14.00;86.00;;;;;;10349337;28;20127;-37
2022/09/27 03:53:23;;;;;;;8.15;0.60;;;13.70;84.70;;;;;;10363883;28;20101;-37
2022/09/27 03:58:25;;;;;;;3.35;0.65;;;13.00;87.90;;;;;;10348078;28;20073;-37
2022/09/27 04:03:28;;;;;;;7.57;0.97;;;14.40;82.50;;;;;;10344892;28;20133;-37
2022/09/27 04:08:30;;;;;;;6.25;0.80;;;15.30;79.80;;;;;;10353545;28;20054;-37
2022/09/27 04:13:32;;;;;;;1.83;0.43;;;14.00;84.30;;;;;;10348583;28;20054;-38
2022/09/27 04:18:35;;;;;;;4.25;0.80;;;15.40;79.90;;;;;;10355939;28;20159;-36
2022/09/27 04:23:37;;;;;;;4.05;0.80;;;14.90;79.10;;;;;;10370662;28;20486;-37
2022/09/27 04:28:39;;;;;;;5.87;1.13;;;15.00;81.40;;;;;;10364610;28;20073;-35
2022/09/27 04:33:42;;;;;;;10.60;0.95;;;12.30;87.90;;;;;;10348059;28;20483;-37
2022/09/27 04:38:44;;;;;;;13.75;0.98;;;13.00;89.40;;;;;;10373180;28;20057;-36
2022/09/27 04:43:46;;;;;;;3.27;0.40;;;14.40;81.10;;;;;;10369890;28;20053;-37
2022/09/27 04:48:49;;;;;;;1.30;0.30;;;15.10;79.90;;;;;;10368250;28;20081;-38
2022/09/27 04:53:51;;;;;;;4.25;0.45;;;15.70;78.20;;;;;;10365123;28;20136;-37
2022/09/27 04:58:53;;;;;;;4.93;0.87;;;15.90;77.20;;;;;;10366859;28;20447;-37
2022/09/27 05:03:57;;;;;;;6.57;0.95;;;17.00;70.20;;;;;;10357155;28;20057;-37
2022/09/27 05:08:59;;;;;;;3.08;0.68;;;14.20;79.70;;;;;;10364280;28;20096;-38
2022/09/27 05:14:00;;;;;;;2.07;0.53;;;14.40;82.30;;;;;;10361785;28;20077;-38
2022/09/27 05:19:04;;;;;;;8.17;0.53;;;16.40;74.60;;;;;;10366011;28;20569;-38
2022/09/27 05:24:06;;;;;;;7.28;0.88;;;15.50;76.50;;;;;;10361957;28;20053;-38
2022/09/27 05:29:08;;;;;;;2.27;0.40;;;15.30;71.70;;;;;;10363429;28;20060;-38
2022/09/27 05:34:12;;;;;;;6.13;0.82;;;14.50;80.50;;;;;;10348255;28;20046;-37
2022/09/27 05:39:15;;;;;;;5.75;1.00;;;16.50;72.00;;;;;;10337308;28;20212;-39
2022/09/27 05:44:17;;;;;;;1.40;0.32;;;16.20;72.50;;;;;;10351334;28;20104;-38
2022/09/27 05:49:20;;;;;;;5.43;0.75;;;16.70;73.00;;;;;;10346464;28;20127;-40
2022/09/27 05:54:22;;;;;;;1.50;0.60;;;14.90;77.60;;;;;;10357606;28;20077;-39
2022/09/27 05:59:24;;;;;;;6.00;0.93;;;16.00;76.80;;;;;;10353964;28;20137;-41
2022/09/27 06:04:27;;;;;;;5.30;1.17;;;16.10;75.10;;;;;;10356728;28;20053;-39
2022/09/27 06:09:29;;;;;;;5.15;0.57;;;15.00;74.70;;;;;;10338307;28;20056;-35
2022/09/27 06:14:33;;;;;;;5.13;0.83;;;14.40;81.10;;;;;;10346177;28;20050;-38
2022/09/27 06:19:36;;;;;;;2.70;1.05;;;13.30;79.70;;;;;;10354475;28;20053;-37
2022/09/27 06:24:38;;;;;;;3.35;1.25;;;13.30;84.40;;;;;;10359386;28;20060;-40
2022/09/27 06:29:40;;;;;;;5.90;1.02;;;14.40;77.50;;;;;;10346232;28;20060;-38
2022/09/27 06:34:43;;;;;;;3.93;1.07;;;14.30;81.70;;;;;;10356522;28;20096;-36
2022/09/27 06:39:47;;;;;;;5.68;1.10;;;13.50;84.70;;;;;;10352751;28;20086;-38
2022/09/27 06:44:49;;;;;;;3.45;1.25;;;14.90;79.70;;;;;;10357443;28;20046;-40
2022/09/27 06:49:52;;;;;;;1.90;0.60;;;13.20;85.70;;;;;;10349567;28;20093;-40
2022/09/27 06:54:54;;;;;;;3.97;0.77;;;15.30;75.50;;;;;;10343198;28;20118;-39
2022/09/27 07:05:17;;;;;;;1.92;1.05;;;15.10;78.70;;;;;;10350276;28;20042;-39
2022/09/27 07:10:19;;;;;;;3.05;0.90;;;14.80;77.80;;;;;;10355023;28;20779;-38
2022/09/27 07:15:22;;;;;;;2.70;0.85;;;15.30;77.00;;;;;;10348725;28;20073;-38
2022/09/27 07:20:25;;;;;;;5.35;1.23;;;15.20;79.20;;;;;;10349238;28;20130;-40
2022/09/27 07:25:27;;;;;;;4.07;1.48;;;16.70;72.20;;;;;;10339332;28;22376;-38
2022/09/27 07:30:29;;;;;;;7.97;1.93;;;17.30;69.10;;;;;;10348691;28;20088;-41
2022/09/27 07:35:32;;;;;;;5.93;0.93;;;15.90;72.70;;;;;;10368562;28;20446;-39
2022/09/27 07:40:36;;;;;;;4.18;0.88;;;17.90;67.30;;;;;;10367355;28;20048;-36
2022/09/27 07:45:39;;;;;;;8.25;2.92;;;16.60;72.10;;;;;;10381679;28;20422;-38
2022/09/27 07:50:42;;;;;;;4.55;2.42;;;17.70;66.40;;;;;;10360382;28;20123;-38
2022/09/27 07:55:44;;;;;;;8.52;2.10;;;17.70;67.10;;;;;;10349738;28;20470;-35
2022/09/27 08:00:46;;;;;;;5.07;1.00;;;16.10;72.80;;;;;;10357998;28;20111;-37
2022/09/27 08:05:49;;;;;;;7.30;1.27;;;14.20;83.40;;;;;;10357458;28;22559;-37
2022/09/27 08:10:51;;;;;;;6.72;0.85;;;15.00;77.50;;;;;;10353457;28;20074;-38
2022/09/27 08:15:53;;;;;;;4.60;0.82;;;13.20;86.60;;;;;;10351335;28;20509;-38
2022/09/27 08:20:58;;;;;;;7.85;0.65;;;14.50;83.00;;;;;;10367187;28;20062;-37
2022/09/27 08:25:59;;;;;;;8.30;1.00;;;13.60;85.40;;;;;;10346791;28;20057;-39
2022/09/27 08:31:01;;;;;;;8.18;1.00;;;13.30;86.20;;;;;;10350462;28;20047;-37
2022/09/27 08:36:10;;;;;;;4.17;0.70;;;15.70;78.00;;;;;;10349936;28;20141;-36
2022/09/27 08:41:21;;;;;;;5.10;0.70;;;16.50;73.50;;;;;;10366272;28;20085;-37
2022/09/27 08:46:33;;;;;;;4.60;0.85;;;15.20;79.30;;;;;;10356501;28;20082;-38
2022/09/27 08:51:37;;;;;;;3.38;0.90;;;15.00;80.10;;;;;;10342810;28;20049;-38
2022/09/27 08:56:40;;;;;;;4.28;0.93;;;15.40;76.50;;;;;;10365326;28;20482;-38
2022/09/27 09:01:43;;;;;;;6.50;1.45;;;15.10;79.70;;;;;;10364286;28;20085;-39
2022/09/27 09:06:57;;;;;;;6.45;0.75;;;14.50;78.80;;;;;;10354262;28;20659;-38
2022/09/27 09:17:44;;;;;;;5.45;0.93;;;15.50;73.00;;;;;;10352339;28;20486;-35
2022/09/27 09:23:07;;;;;;;6.57;1.33;;;14.50;81.10;;;;;;10358999;28;20088;-37
2022/09/27 09:28:26;;;;;;;6.65;2.28;;;14.30;82.10;;;;;;10362852;28;20042;-37
2022/09/27 09:33:32;;;;;;;6.13;3.38;;;16.40;73.50;;;;;;10356999;28;20434;-37
2022/09/27 09:38:40;;;;;;;4.82;1.80;;;17.80;65.70;;;;;;10351238;28;20046;-36
2022/09/27 09:43:48;;;;;;;8.98;2.30;;;17.80;65.80;;;;;;10348195;28;20085;-36
2022/09/27 09:48:56;;;;;;;4.85;2.28;;;18.40;63.90;;;;;;10345185;28;20056;-38
2022/09/27 09:54:05;;;;;;;5.57;2.20;;;18.40;63.00;;;;;;10360592;28;20049;-39
2022/09/27 09:59:15;;;;;;;4.38;1.70;;;18.50;63.00;;;;;;10350815;28;20049;-38
2022/09/27 10:04:21;;;;;;;3.08;1.10;;;18.60;63.00;;;;;;10354457;28;20046;-39
2022/09/27 10:09:27;;;;;;;2.10;1.15;;;18.70;62.60;;;;;;10357908;28;20128;-38
2022/09/27 10:14:29;;;;;;;2.75;0.93;;;18.60;62.50;;;;;;10337737;28;20435;-39
2022/09/27 10:19:33;;;;;;;2.25;0.93;;;18.50;63.00;;;;;;10361851;28;20050;-36
2022/09/27 10:24:54;;;;;;;2.10;0.80;;;18.60;62.70;;;;;;10355464;28;20064;-38
2022/09/27 10:29:58;;;;;;;15.45;1.88;;;16.60;68.80;;;;;;10360453;28;20054;-40
2022/09/27 10:35:35;;;;;;;3.35;1.00;;;15.10;73.30;;;;;;10353051;28;20075;-38
2022/09/27 10:40:38;;;;;;;11.10;1.90;;;14.80;77.60;;;;;;10331920;28;20039;-38
2022/09/27 10:45:40;;;;;;;7.20;1.40;;;14.40;81.90;;;;;;10352412;28;20462;-38
2022/09/27 10:50:58;;;;;;;8.90;3.00;;;14.60;79.30;;;;;;10366655;28;20683;-39
2022/09/27 10:56:01;;;;;;;10.15;3.50;;;15.40;78.40;;;;;;10350578;28;20108;-36
2022/09/27 11:01:06;;;;;;;5.90;2.75;;;15.50;75.90;;;;;;10357688;28;20069;-38
2022/09/27 11:06:20;;;;;;;9.18;1.38;;;14.40;77.20;;;;;;10354051;28;20486;-38
2022/09/27 11:11:25;;;;;;;7.40;1.25;;;14.70;70.00;;;;;;10366500;28;20490;-39
2022/09/27 11:16:43;;;;;;;12.27;1.08;;;14.40;75.90;;;;;;10364180;28;20053;-40
2022/09/27 11:21:53;;;;;;;6.88;1.95;;;14.70;66.60;;;;;;10360773;28;20137;-38
2022/09/27 11:27:08;;;;;;;14.68;1.55;;;15.40;67.00;;;;;;10358626;28;20753;-38
2022/09/27 11:32:21;;;;;;;11.23;1.92;;;14.90;68.70;;;;;;10358850;28;20077;-38
2022/09/27 11:37:30;;;;;;;7.80;1.40;;;14.90;70.00;;;;;;10372297;28;20100;-37
2022/09/27 11:43:02;;;;;;;4.30;1.40;;;14.80;64.10;;;;;;10356593;28;20073;-39
2022/09/27 11:48:17;;;;;;;8.55;3.95;;;15.10;71.30;;;;;;10347707;28;20411;-39
2022/09/27 11:53:40;;;;;;;13.52;6.05;;;15.10;62.90;;;;;;10355107;28;20115;-38
2022/09/27 11:59:00;;;;;;;12.18;3.78;;;14.80;64.20;;;;;;10347459;28;20125;-39
2022/09/27 12:04:29;;;;;;;6.90;0.93;;;15.20;68.50;;;;;;10360277;28;20521;-40
2022/09/27 12:09:35;;;;;;;9.95;4.80;;;15.80;65.20;;;;;;10364002;28;20045;-37
2022/09/27 12:14:42;;;;;;;12.18;4.45;;;15.80;67.00;;;;;;10356434;28;20082;-38
2022/09/27 12:19:50;;;;;;;4.65;2.08;;;15.60;68.70;;;;;;10359572;28;20423;-40
2022/09/27 12:24:52;;;;;;;7.25;2.30;;;15.80;68.50;;;;;;10350600;28;20108;-41
2022/09/27 12:29:57;;;;;;;11.40;3.60;;;15.50;61.70;;;;;;10351781;28;20094;-39
2022/09/27 12:35:10;;;;;;;4.95;1.42;;;15.50;69.50;;;;;;10362268;28;20048;-40
2022/09/27 12:40:18;;;;;;;9.50;1.83;;;15.80;61.60;;;;;;10367141;28;20042;-39
2022/09/27 12:45:31;;;;;;;4.70;1.73;;;16.10;64.40;;;;;;10361765;28;20140;-38
2022/09/27 12:50:38;;;;;;;8.13;1.48;;;16.40;68.30;;;;;;10365784;28;20045;-39
2022/09/27 12:56:08;;;;;;;9.05;1.55;;;15.80;60.80;;;;;;10348883;28;20119;-39
2022/09/27 13:01:19;;;;;;;5.65;1.38;;;15.40;63.90;;;;;;10357221;28;20061;-40
2022/09/27 13:06:50;;;;;;;6.35;2.45;;;16.50;62.10;;;;;;10340879;28;20082;-37
2022/09/27 13:12:00;;;;;;;9.32;1.77;;;16.90;62.00;;;;;;10353835;28;20088;-38
2022/09/27 13:17:02;;;;;;;8.00;2.33;;;16.30;69.90;;;;;;10347779;28;20065;-40
2022/09/27 13:22:07;;;;;;;12.87;1.30;;;16.00;71.00;;;;;;10357454;28;20080;-38
2022/09/27 13:27:37;;;;;;;5.95;1.65;;;16.10;65.60;;;;;;10381028;28;20088;-40
2022/09/27 13:32:39;;;;;;;9.20;1.42;;;16.40;61.50;;;;;;10359338;28;20501;-38
2022/09/27 13:37:58;;;;;;;5.53;1.55;;;17.00;68.40;;;;;;10367923;28;20073;-38
2022/09/27 13:43:28;;;;;;;12.98;1.35;;;16.70;66.60;;;;;;10354587;28;20050;-37
2022/09/27 13:48:41;;;;;;;7.50;1.75;;;16.40;69.30;;;;;;10367099;28;20213;-38
2022/09/27 13:53:56;;;;;;;5.80;1.58;;;16.60;68.20;;;;;;10366155;28;20057;-38
2022/09/27 13:59:01;;;;;;;8.55;1.63;;;16.30;70.70;;;;;;10355234;28;20045;-38
2022/09/27 14:04:05;;;;;;;9.52;1.23;;;16.00;67.50;;;;;;10345235;28;20108;-37
2022/09/27 14:09:18;;;;;;;5.28;1.42;;;16.80;66.00;;;;;;10341595;28;20039;-39
2022/09/27 14:14:24;;;;;;;5.40;1.42;;;16.00;70.10;;;;;;10344227;28;20094;-37
2022/09/27 14:19:27;;;;;;;6.47;1.40;;;15.10;77.90;;;;;;10364767;28;20492;-37
2022/09/27 14:24:42;;;;;;;7.53;2.00;;;16.20;73.70;;;;;;10348628;28;20046;-39
2022/09/27 14:29:47;;;;;;;6.85;3.28;;;16.90;71.50;;;;;;10360230;28;20088;-39
2022/09/27 14:35:05;;;;;;;7.63;2.35;;;18.00;68.00;;;;;;10355893;28;20450;-38
2022/09/27 14:40:20;;;;;;;5.68;1.98;;;18.60;63.80;;;;;;10350001;28;20084;-38
2022/09/27 14:45:26;;;;;;;7.82;1.25;;;16.70;73.30;;;;;;10365767;28;20058;-39
2022/09/27 14:50:30;;;;;;;7.05;1.73;;;16.00;73.90;;;;;;10355222;28;20469;-35
2022/09/27 14:55:34;;;;;;;8.70;1.67;;;16.40;72.20;;;;;;10357653;28;20049;-39
2022/09/27 15:00:36;;;;;;;6.45;1.75;;;17.90;67.30;;;;;;10364820;28;20079;-39
2022/09/27 15:05:41;;;;;;;3.00;1.35;;;16.90;70.30;;;;;;10361291;28;20046;-38
2022/09/27 15:10:45;;;;;;;5.90;1.00;;;16.10;75.00;;;;;;10346902;28;20144;-38
2022/09/27 15:15:48;;;;;;;4.45;1.40;;;16.00;70.10;;;;;;10341985;28;20128;-38
2022/09/27 15:20:54;;;;;;;6.00;2.03;;;16.90;72.00;;;;;;10365272;28;20505;-37
2022/09/27 15:26:06;;;;;;;5.35;1.25;;;16.10;68.80;;;;;;10347425;28;20133;-40
2022/09/27 15:31:08;;;;;;;5.38;1.00;;;16.40;70.70;;;;;;10342196;28;20467;-38
2022/09/27 15:36:14;;;;;;;4.00;1.00;;;15.60;73.10;;;;;;10357010;28;20053;-39
2022/09/27 15:41:19;;;;;;;9.68;1.38;;;17.10;66.80;;;;;;10351968;28;20512;-38
2022/09/27 15:46:34;;;;;;;5.63;1.63;;;16.80;61.70;;;;;;10350762;28;20158;-39
2022/09/27 15:51:41;;;;;;;10.48;1.67;;;16.40;70.70;;;;;;10348263;28;20050;-39
2022/09/27 15:56:44;;;;;;;4.35;0.95;;;16.00;63.60;;;;;;10356862;28;20495;-39
2022/09/27 16:01:46;;;;;;;8.45;1.02;;;16.00;68.20;;;;;;10368775;28;20426;-39
2022/09/27 16:06:48;;;;;;;5.00;1.00;;;15.20;71.40;;;;;;10362213;28;20047;-41
2022/09/27 16:11:51;;;;;;;2.10;0.80;;;16.80;66.90;;;;;;10361066;28;20085;-37
2022/09/27 16:16:57;;;;;;;3.75;1.40;;;16.20;72.80;;;;;;10368600;28;20055;-38
2022/09/27 16:22:02;;;;;;;5.18;1.25;;;16.60;70.80;;;;;;10369032;28;20065;-40
2022/09/27 16:27:05;;;;;;;5.15;0.90;;;16.30;67.80;;;;;;10378964;28;20156;-38
2022/09/27 16:32:07;;;;;;;2.72;0.63;;;17.20;65.40;;;;;;10361909;28;20057;-38
2022/09/27 16:37:10;;;;;;;2.47;1.58;;;16.40;67.50;;;;;;10353842;28;20046;-38
2022/09/27 16:42:14;;;;;;;;;;;18.80;63.90;;;;;;10369730;28;20518;-40
2022/09/27 16:47:16;;;;;;;2.38;0.77;;;17.80;62.00;;;;;;10345570;28;19926;-39
2022/09/27 16:52:18;;;;;;;2.67;1.00;;;17.80;61.30;;;;;;10366416;28;20179;-39
2022/09/27 16:57:21;;;;;;;1.90;0.70;;;18.30;63.40;;;;;;10352463;28;20136;-38
2022/09/27 17:02:23;;;;;;;5.25;0.80;;;19.70;60.00;;;;;;10358875;28;20129;-37
2022/09/27 17:07:25;;;;;;;2.78;0.50;;;20.00;59.50;;;;;;10358183;28;20058;-38
2022/09/27 17:12:28;;;;;;;1.90;0.90;;;20.10;58.80;;;;;;10369969;28;20525;-39
2022/09/27 17:17:30;;;;;;;5.03;0.73;;;20.20;58.60;;;;;;10363074;28;20093;-39
2022/09/27 17:22:32;;;;;;;4.97;1.10;;;19.40;60.80;;;;;;10359309;28;20150;-38
2022/09/27 17:27:35;;;;;;;2.78;0.80;;;18.80;61.20;;;;;;10363053;28;20082;-37
2022/09/27 17:32:38;;;;;;;4.22;1.23;;;18.10;64.00;;;;;;10358038;28;20100;-39
2022/09/27 17:37:39;;;;;;;4.13;1.10;;;19.70;60.50;;;;;;10362990;28;20096;-37
2022/09/27 17:42:43;;;;;;;6.20;2.72;;;20.20;59.00;;;;;;10354388;28;20125;-35
2022/09/27 17:53:17;;;;;;;4.55;1.40;;;20.10;59.30;;;;;;10308234;28;20053;-36
2022/09/27 17:58:20;;;;;;;2.70;0.90;;;19.00;63.10;;;;;;10344512;28;20125;-37
2022/09/27 18:03:22;;;;;;;2.42;0.93;;;20.20;59.10;;;;;;10358189;28;20038;-39
2022/09/27 18:08:29;;;;;;;1.83;1.05;;;20.40;58.80;;;;;;10347193;28;20484;-39
2022/09/27 18:13:39;;;;;;;3.30;0.68;;;20.30;59.10;;;;;;10346349;28;20136;-38
2022/09/27 18:18:43;;;;;;;3.15;0.90;;;20.30;58.50;;;;;;10351912;28;20054;-38
2022/09/27 18:23:45;;;;;;;2.83;0.98;;;20.40;58.40;;;;;;10347931;28;20414;-38
2022/09/27 18:28:48;;;;;;;2.35;0.65;;;20.40;58.40;;;;;;10357490;28;20126;-38
2022/09/27 18:33:50;;;;;;;2.53;0.77;;;20.50;58.50;;;;;;10367073;28;20143;-38
2022/09/27 18:38:54;;;;;;;1.98;0.98;;;20.40;58.40;;;;;;10362491;28;20132;-38
2022/09/27 18:43:59;;;;;;;2.33;0.55;;;20.40;58.40;;;;;;10342856;28;20418;-39
2022/09/27 18:49:02;;;;;;;3.58;1.00;;;20.40;58.50;;;;;;10361346;28;20088;-40
2022/09/27 18:54:07;;;;;;;1.55;0.68;;;20.40;58.50;;;;;;10352206;28;20046;-39
2022/09/27 18:59:10;;;;;;;2.90;0.80;;;20.40;58.50;;;;;;10350318;28;20462;-41
2022/09/27 19:04:14;;;;;;;3.63;1.13;;;20.40;58.40;;;;;;10369027;28;20045;-38
2022/09/27 19:09:16;;;;;;;7.47;0.80;;;20.40;58.50;;;;;;10335548;28;20143;-38
2022/09/27 19:14:21;;;;;;;1.65;0.70;;;20.40;58.50;;;;;;10355192;28;20133;-37
2022/09/27 19:19:23;;;;;;;2.35;0.70;;;20.40;58.50;;;;;;10353658;28;20432;-39
2022/09/27 19:24:25;;;;;;;3.97;0.60;;;20.50;58.40;;;;;;10338956;28;20049;-38
2022/09/27 19:29:28;;;;;;;2.60;0.68;;;20.40;58.40;;;;;;10365191;28;20483;-37
2022/09/27 19:34:30;;;;;;;1.10;0.60;;;20.40;58.50;;;;;;10375708;28;20487;-36
2022/09/27 19:39:32;;;;;;;3.38;0.85;;;20.50;58.40;;;;;;10373479;28;20495;-37
2022/09/27 19:44:35;;;;;;;5.28;1.67;;;20.40;58.50;;;;;;10350283;28;20128;-34
2022/09/27 19:49:36;;;;;;;3.67;1.83;;;18.10;64.90;;;;;;10367761;28;20052;-35
2022/09/27 19:54:38;;;;;;;2.53;1.23;;;19.10;62.90;;;;;;10371672;28;20446;-38
2022/09/27 19:59:42;;;;;;;3.38;0.63;;;20.20;59.60;;;;;;10352024;28;20045;-39
2022/09/27 20:04:44;;;;;;;3.88;0.65;;;20.30;59.00;;;;;;10356499;28;20053;-38
2022/09/27 20:09:47;;;;;;;2.78;1.00;;;20.30;58.90;;;;;;10361085;28;20399;-40
2022/09/27 20:14:50;;;;;;;4.90;1.10;;;19.90;59.80;;;;;;10364892;28;20449;-31
2022/09/27 20:19:51;;;;;;;2.53;0.73;;;19.70;60.30;;;;;;10353498;28;20545;-39
2022/09/27 20:24:53;;;;;;;2.80;0.77;;;18.30;64.60;;;;;;10358212;28;20699;-37
2022/09/27 20:29:57;;;;;;;2.87;0.77;;;17.60;66.00;;;;;;10344350;28;20509;-37
2022/09/27 20:34:58;;;;;;;1.75;0.47;;;19.00;63.80;;;;;;10352041;28;20113;-38
2022/09/27 20:40:02;;;;;;;1.70;0.50;;;15.80;72.90;;;;;;10356809;28;20096;-38
2022/09/27 20:45:05;;;;;;;2.63;1.00;;;17.90;67.40;;;;;;10364954;28;20049;-36
2022/09/27 20:50:08;;;;;;;4.15;1.10;;;17.10;71.30;;;;;;10362440;28;20068;-39
2022/09/27 20:55:10;;;;;;;2.33;1.23;;;17.80;67.60;;;;;;10358817;28;20050;-37
2022/09/27 21:00:14;;;;;;;;;;;19.20;62.80;;;;;;10352208;28;20454;-39
2022/09/27 21:05:15;;;;;;;3.20;0.90;;;19.80;60.60;;;;;;10348282;28;20279;-37
2022/09/27 21:10:17;;;;;;;0.70;0.45;;;19.90;60.00;;;;;;10367816;28;20077;-39
2022/09/27 21:15:21;;;;;;;1.98;1.05;;;20.00;59.80;;;;;;10369289;28;20132;-37
2022/09/27 21:20:23;;;;;;;1.23;0.63;;;20.00;59.60;;;;;;10355845;28;20057;-38
2022/09/27 21:25:24;;;;;;;1.02;0.43;;;19.90;59.60;;;;;;10355275;28;20568;-37
2022/09/27 21:30:29;;;;;;;4.82;0.57;;;19.90;59.60;;;;;;10352872;28;20132;-40
2022/09/27 21:35:31;;;;;;;0.50;0.30;;;20.00;59.50;;;;;;10359126;28;20052;-39
2022/09/27 21:40:33;;;;;;;0.65;0.32;;;19.90;59.50;;;;;;10356860;28;20066;-37
2022/09/27 21:45:36;;;;;;;1.95;0.52;;;19.90;59.20;;;;;;10330293;28;20058;-35
2022/09/27 21:50:38;;;;;;;4.50;0.65;;;19.90;59.40;;;;;;10361989;28;20070;-40
2022/09/27 21:55:40;;;;;;;0.60;0.30;;;19.90;59.30;;;;;;10344235;28;20073;-36
2022/09/27 22:00:43;;;;;;;3.70;0.40;;;19.90;59.40;;;;;;10356476;28;20130;-35
2022/09/27 22:05:45;;;;;;;3.20;0.45;;;17.00;65.10;;;;;;10349148;28;20491;-35
2022/09/27 22:10:47;;;;;;;1.65;0.52;;;17.30;68.60;;;;;;10350928;28;20893;-37
2022/09/27 22:15:51;;;;;;;1.90;1.00;;;17.80;65.10;;;;;;10361267;28;20100;-39
2022/09/27 22:20:52;;;;;;;0.95;0.60;;;19.20;62.00;;;;;;10356543;28;20060;-39
2022/09/27 22:25:54;;;;;;;1.83;0.82;;;19.50;60.40;;;;;;10354660;28;20561;-37
2022/09/27 22:31:03;;;;;;;0.38;0.32;;;19.60;60.10;;;;;;10348532;28;20065;-37
2022/09/27 22:36:06;;;;;;;1.75;0.40;;;19.70;59.90;;;;;;10352610;28;20073;-38
2022/09/27 22:41:07;;;;;;;;;;;19.80;59.60;;;;;;10354475;28;20046;-37
2022/09/27 22:46:11;;;;;;;0.90;0.50;;;19.70;59.60;;;;;;10353703;28;20012;-38
2022/09/27 22:51:14;;;;;;;0.57;0.30;;;19.70;59.50;;;;;;10354580;28;20087;-36
2022/09/27 22:56:16;;;;;;;;;;;19.70;59.50;;;;;;10345218;28;20070;-39
2022/09/27 23:01:22;;;;;;;1.67;0.35;;;19.70;59.50;;;;;;10359010;28;20017;-39
2022/09/27 23:06:24;;;;;;;0.85;0.68;;;19.40;59.40;;;;;;10360873;28;20450;-39
2022/09/27 23:11:26;;;;;;;1.40;0.50;;;19.60;59.60;;;;;;10356959;28;20487;-37
2022/09/27 23:16:29;;;;;;;0.88;0.43;;;19.60;59.70;;;;;;10346986;28;20077;-38
2022/09/27 23:21:31;;;;;;;1.13;0.45;;;19.60;59.60;;;;;;10356248;28;20128;-39
2022/09/27 23:26:32;;;;;;;0.30;0.30;;;19.40;59.60;;;;;;10342263;28;20372;-40
2022/09/27 23:31:36;;;;;;;1.08;0.40;;;19.50;59.50;;;;;;10354661;28;20074;-40
2022/09/27 23:36:38;;;;;;;1.75;0.30;;;19.50;59.60;;;;;;10354481;28;20136;-39
2022/09/27 23:41:40;;;;;;;4.85;0.52;;;19.40;59.50;;;;;;10339450;28;20498;-37
2022/09/27 23:46:44;;;;;;;0.73;0.30;;;19.40;59.50;;;;;;10354790;28;20077;-38
2022/09/27 23:51:45;;;;;;;2.13;0.40;;;19.40;59.80;;;;;;10345482;28;20393;-39
2022/09/27 23:56:48;;;;;;;0.82;0.40;;;19.40;59.20;;;;;;10352817;28;20561;-39
